Time;durP1;ratioP1;P1;durP2;ratioP2;P2;SDS_P1;SDS_P2;PMS_P1;PMS_P2;Temp;Humidity;BMP_temperature;BMP_pressure;BME280_temperature;BME280_humidity;BME280_pressure;Samples;Min_cycle;Max_cycle;Signal;HPM_P1;HPM_P2
2022/02/27 00:01:50;;;;;;;0.80;0.80;;;21.70;75.90;;;;;;4959122;28;98618;-68
2022/02/27 00:04:28;;;;;;;1.02;0.65;;;21.70;75.80;;;;;;4968336;28;96746;-67
2022/02/27 00:06:59;;;;;;;2.28;0.80;;;21.70;75.50;;;;;;4970607;28;97660;-68
2022/02/27 00:09:30;;;;;;;0.73;0.70;;;21.80;75.50;;;;;;4967459;28;95667;-67
2022/02/27 00:12:01;;;;;;;;;;;21.80;75.50;;;;;;4968078;28;97398;-68
2022/02/27 00:14:32;;;;;;;0.63;0.63;;;21.80;75.50;;;;;;4966900;28;98294;-68
2022/02/27 00:17:03;;;;;;;3.43;0.60;;;21.80;75.50;;;;;;4991175;28;96306;-68
2022/02/27 00:19:34;;;;;;;1.10;1.00;;;21.90;75.20;;;;;;4966617;28;96087;-67
2022/02/27 00:22:04;;;;;;;0.77;0.77;;;21.90;75.10;;;;;;4969254;28;98812;-68
2022/02/27 00:24:35;;;;;;;1.05;0.90;;;21.90;74.90;;;;;;4968490;28;96202;-68
2022/02/27 00:27:05;;;;;;;;;;;21.90;75.10;;;;;;4969515;28;95381;-68
2022/02/27 00:29:36;;;;;;;1.67;1.20;;;22.00;74.80;;;;;;4946237;28;96068;-68
2022/02/27 00:32:08;;;;;;;1.02;1.00;;;22.00;74.80;;;;;;4957816;28;98164;-68
2022/02/27 00:34:41;;;;;;;0.73;0.73;;;22.00;74.70;;;;;;4959316;28;96338;-68
2022/02/27 00:37:11;;;;;;;6.30;1.95;;;22.10;74.60;;;;;;4974903;28;96747;-69
2022/02/27 00:39:44;;;;;;;7.97;3.92;;;22.10;74.50;;;;;;4960324;28;96137;-70
2022/02/27 00:42:16;;;;;;;8.65;3.85;;;22.10;74.70;;;;;;4968775;28;96025;-69
2022/02/27 00:44:47;;;;;;;9.80;3.93;;;22.20;74.70;;;;;;4966726;28;98001;-69
2022/02/27 00:47:20;;;;;;;;;;;22.20;74.60;;;;;;4912531;28;100785;-69
2022/02/27 00:49:51;;;;;;;5.82;2.22;;;22.20;74.50;;;;;;4944315;28;95609;-66
2022/02/27 00:52:24;;;;;;;7.65;2.65;;;22.20;74.50;;;;;;4947512;28;96180;-68
2022/02/27 00:54:55;;;;;;;10.77;3.05;;;22.20;74.60;;;;;;4959656;28;97581;-67
2022/02/27 00:57:29;;;;;;;3.80;2.20;;;22.20;74.70;;;;;;4948103;28;95656;-66
2022/02/27 01:00:01;;;;;;;3.40;1.83;;;22.20;74.60;;;;;;4944650;28;97691;-67
2022/02/27 01:02:37;;;;;;;6.25;2.53;;;22.20;74.50;;;;;;4977269;28;97972;-67
2022/02/27 01:05:08;;;;;;;2.40;1.65;;;22.20;74.60;;;;;;4983628;28;95206;-67
2022/02/27 01:07:41;;;;;;;2.78;1.52;;;22.20;74.50;;;;;;5014221;28;95242;-67
2022/02/27 01:10:13;;;;;;;5.72;2.15;;;22.20;74.40;;;;;;4984950;28;95378;-67
2022/02/27 01:12:46;;;;;;;4.63;2.00;;;22.20;74.50;;;;;;5016837;28;98108;-67
2022/02/27 01:15:17;;;;;;;3.13;1.57;;;22.20;74.40;;;;;;4971754;28;95805;-67
2022/02/27 01:17:54;;;;;;;5.13;1.70;;;22.20;74.40;;;;;;4967067;28;95694;-68
2022/02/27 01:20:25;;;;;;;3.03;1.38;;;22.20;74.40;;;;;;4967835;28;95622;-67
2022/02/27 01:22:55;;;;;;;4.80;1.60;;;22.30;74.40;;;;;;4969980;28;96450;-68
2022/02/27 01:25:26;;;;;;;;;;;22.20;74.30;;;;;;5001173;28;96126;-67
2022/02/27 01:27:57;;;;;;;3.43;1.77;;;22.30;74.40;;;;;;4972559;28;96149;-67
2022/02/27 01:30:27;;;;;;;1.77;1.20;;;22.30;74.30;;;;;;4960961;28;97267;-67
2022/02/27 01:33:00;;;;;;;2.65;1.27;;;22.30;74.30;;;;;;4969894;28;96059;-67
2022/02/27 01:35:31;;;;;;;2.05;1.38;;;22.30;74.30;;;;;;4964291;28;98651;-67
2022/02/27 01:38:02;;;;;;;4.60;2.35;;;22.40;74.40;;;;;;4963379;28;99440;-67
2022/02/27 01:40:33;;;;;;;2.47;1.33;;;22.30;74.30;;;;;;4961748;28;96188;-66
2022/02/27 01:43:05;;;;;;;3.15;1.38;;;22.40;74.30;;;;;;4970516;28;95882;-67
2022/02/27 01:45:35;;;;;;;2.13;1.35;;;22.40;74.30;;;;;;4963615;28;96092;-67
2022/02/27 01:48:05;;;;;;;3.13;1.30;;;22.40;74.30;;;;;;4971937;28;96005;-67
2022/02/27 01:50:36;;;;;;;1.77;1.30;;;22.40;74.30;;;;;;4972116;28;95347;-67
2022/02/27 01:53:07;;;;;;;2.90;1.67;;;22.40;74.20;;;;;;4969917;28;96728;-67
2022/02/27 01:55:38;;;;;;;3.15;1.48;;;22.50;74.30;;;;;;4971147;28;95746;-66
2022/02/27 01:58:09;;;;;;;3.10;1.33;;;22.50;74.20;;;;;;4970011;28;95860;-65
2022/02/27 02:00:40;;;;;;;1.73;1.27;;;22.50;74.20;;;;;;4989980;28;97674;-66
2022/02/27 02:03:12;;;;;;;6.85;6.25;;;22.50;74.10;;;;;;4969330;28;96546;-69
2022/02/27 02:05:46;;;;;;;2.35;1.67;;;22.60;74.50;;;;;;4970484;28;95756;-67
2022/02/27 02:08:19;;;;;;;5.35;1.50;;;22.60;74.50;;;;;;4970745;28;95775;-68
2022/02/27 02:10:50;;;;;;;2.75;2.38;;;22.70;74.20;;;;;;4982378;28;95688;-68
2022/02/27 02:13:20;;;;;;;3.92;2.55;;;22.70;71.80;;;;;;4970102;28;95762;-68
2022/02/27 02:15:58;;;;;;;3.20;1.55;;;22.60;72.60;;;;;;4964377;28;97978;-67
2022/02/27 02:18:39;;;;;;;3.47;1.75;;;22.60;72.00;;;;;;4950500;28;96308;-68
2022/02/27 02:21:10;;;;;;;2.25;1.33;;;22.60;71.40;;;;;;4969631;28;95566;-67
2022/02/27 02:23:41;;;;;;;2.72;1.85;;;22.60;70.30;;;;;;4969472;28;96720;-68
2022/02/27 02:26:18;;;;;;;3.05;1.17;;;22.60;69.70;;;;;;4966588;28;97228;-67
2022/02/27 02:28:48;;;;;;;2.63;2.42;;;22.60;68.40;;;;;;4967746;28;96502;-69
2022/02/27 02:31:20;;;;;;;3.67;1.73;;;22.60;67.50;;;;;;4965020;28;95869;-69
2022/02/27 02:33:53;;;;;;;2.05;1.42;;;22.60;66.80;;;;;;4968701;28;98214;-68
2022/02/27 02:36:24;;;;;;;2.50;1.10;;;22.60;66.20;;;;;;4970957;28;95955;-68
2022/02/27 02:38:55;;;;;;;4.35;2.05;;;22.60;65.40;;;;;;4957186;28;95897;-67
2022/02/27 02:41:26;;;;;;;3.28;2.13;;;22.60;65.30;;;;;;4942571;28;96023;-67
2022/02/27 02:43:58;;;;;;;2.55;2.00;;;22.70;64.90;;;;;;4984161;28;98202;-66
2022/02/27 02:46:29;;;;;;;;;;;22.80;65.60;;;;;;4958188;28;95784;-68
2022/02/27 02:49:03;;;;;;;1.77;1.52;;;22.90;65.40;;;;;;4966093;28;96006;-68
2022/02/27 02:51:43;;;;;;;1.48;1.23;;;23.00;65.30;;;;;;4953511;28;95762;-68
2022/02/27 02:54:15;;;;;;;2.90;1.50;;;23.10;65.10;;;;;;4961601;28;97761;-68
2022/02/27 02:56:48;;;;;;;1.77;0.90;;;23.10;64.70;;;;;;4965874;28;95762;-70
2022/02/27 02:59:23;;;;;;;1.90;1.80;;;23.10;64.60;;;;;;4995498;28;95883;-68
2022/02/27 03:01:55;;;;;;;3.78;3.45;;;23.20;64.40;;;;;;4957187;28;98341;-70
2022/02/27 03:04:28;;;;;;;5.32;5.03;;;23.20;64.10;;;;;;4967627;28;96471;-68
2022/02/27 03:06:59;;;;;;;6.78;6.47;;;23.20;63.80;;;;;;4956351;28;96114;-70
2022/02/27 03:09:33;;;;;;;;;;;23.20;63.60;;;;;;4967619;28;95900;-70
2022/02/27 03:12:07;;;;;;;3.72;2.10;;;23.30;63.40;;;;;;4968255;28;96149;-69
2022/02/27 03:14:37;;;;;;;1.80;1.50;;;23.30;63.20;;;;;;4966169;28;95976;-68
2022/02/27 03:17:07;;;;;;;3.08;1.67;;;23.30;62.30;;;;;;4955354;28;96253;-67
2022/02/27 03:19:39;;;;;;;4.75;1.33;;;23.20;60.10;;;;;;4965632;28;96327;-67
2022/02/27 03:22:10;;;;;;;2.20;0.90;;;23.10;59.70;;;;;;4962133;28;96596;-67
2022/02/27 03:24:42;;;;;;;1.80;0.80;;;23.10;59.30;;;;;;4967723;28;98051;-67
2022/02/27 03:27:13;;;;;;;2.50;0.95;;;23.40;1.00;;;;;;4968313;28;96091;-68
2022/02/27 03:29:43;;;;;;;2.92;0.98;;;23.10;59.50;;;;;;4964650;28;95812;-71
2022/02/27 03:32:15;;;;;;;0.95;0.73;;;23.20;59.90;;;;;;4956444;28;96060;-68
2022/02/27 03:34:47;;;;;;;1.45;0.90;;;23.30;59.90;;;;;;4967708;28;95930;-68
2022/02/27 03:37:19;;;;;;;0.98;0.80;;;23.30;59.80;;;;;;4966803;28;96360;-68
2022/02/27 03:39:51;;;;;;;3.92;1.67;;;23.40;59.50;;;;;;4958835;28;96665;-68
2022/02/27 03:42:22;;;;;;;1.98;0.82;;;23.40;59.40;;;;;;4972794;28;96046;-68
2022/02/27 03:44:53;;;;;;;;;;;23.50;59.40;;;;;;4968188;28;96443;-68
2022/02/27 03:47:23;;;;;;;14.00;3.20;;;23.50;59.40;;;;;;4965506;28;97312;-68
2022/02/27 03:49:58;;;;;;;7.50;1.90;;;23.50;59.70;;;;;;4970170;28;95815;-69
2022/02/27 03:52:30;;;;;;;3.58;1.35;;;23.40;58.40;;;;;;4970672;28;95942;-70
2022/02/27 03:55:05;;;;;;;4.40;0.98;;;23.40;59.20;;;;;;4971979;28;95996;-70
2022/02/27 03:57:36;;;;;;;2.78;0.98;;;23.50;59.60;;;;;;4970460;28;96461;-69
2022/02/27 04:00:17;;;;;;;7.65;6.93;;;23.60;60.00;;;;;;4964681;28;95447;-70
2022/02/27 04:02:48;;;;;;;1.90;0.82;;;23.70;58.30;;;;;;4971065;28;95852;-67
2022/02/27 04:05:23;;;;;;;1.30;0.85;;;23.80;58.00;;;;;;4965478;28;96289;-67
2022/02/27 04:07:54;;;;;;;2.55;1.52;;;23.80;58.20;;;;;;4963278;28;97354;-67
2022/02/27 04:10:27;;;;;;;2.15;0.70;;;23.80;58.10;;;;;;4971564;28;95591;-68
2022/02/27 04:12:58;;;;;;;4.32;0.80;;;23.80;58.70;;;;;;4976715;28;96201;-68
2022/02/27 04:15:29;;;;;;;2.33;0.93;;;23.80;58.10;;;;;;4970865;28;95869;-67
2022/02/27 04:18:00;;;;;;;3.53;1.05;;;24.00;1.00;;;;;;4976241;28;102032;-68
2022/02/27 04:20:31;;;;;;;1.45;1.35;;;24.10;1.00;;;;;;4997646;28;97230;-68
2022/02/27 04:23:02;;;;;;;0.75;0.60;;;23.70;56.80;;;;;;4973032;28;96196;-70
2022/02/27 04:25:33;;;;;;;1.50;1.40;;;23.70;56.60;;;;;;4981388;28;95669;-68
2022/02/27 04:28:04;;;;;;;1.08;0.90;;;23.70;56.30;;;;;;4970887;28;96536;-68
2022/02/27 04:30:35;;;;;;;2.15;1.27;;;23.70;56.20;;;;;;4961240;28;97350;-68
2022/02/27 04:33:05;;;;;;;1.63;0.50;;;23.70;56.10;;;;;;4969149;28;95222;-68
2022/02/27 04:35:36;;;;;;;1.13;0.70;;;23.60;55.70;;;;;;4968999;28;95962;-68
2022/02/27 04:38:07;;;;;;;;;;;23.60;55.70;;;;;;4961812;28;100928;-68
2022/02/27 04:40:38;;;;;;;4.63;4.37;;;23.60;55.60;;;;;;4963284;28;95441;-68
2022/02/27 04:43:08;;;;;;;1.17;1.10;;;23.60;55.60;;;;;;4967819;28;97519;-68
2022/02/27 04:45:37;;;;;;;3.90;3.80;;;23.60;55.40;;;;;;4960857;28;95844;-68
2022/02/27 04:48:07;;;;;;;5.90;5.70;;;23.60;55.20;;;;;;4968731;28;96450;-68
2022/02/27 04:50:38;;;;;;;5.45;5.25;;;23.60;54.90;;;;;;4973860;22;97209;-42
2022/02/27 04:53:12;;;;;;;6.35;6.13;;;23.60;55.30;;;;;;4958139;28;95719;-42
2022/02/27 04:55:43;;;;;;;1.35;1.25;;;23.70;55.50;;;;;;4957487;28;95997;-42
2022/02/27 04:58:14;;;;;;;1.58;1.00;;;23.70;55.50;;;;;;4956349;28;95776;-42
2022/02/27 05:00:44;;;;;;;0.80;0.80;;;23.70;55.50;;;;;;4952629;28;96131;-42
2022/02/27 05:03:15;;;;;;;;;;;23.70;55.50;;;;;;4957960;28;95984;-42
2022/02/27 05:05:48;;;;;;;4.32;1.10;;;23.80;56.50;;;;;;4953753;28;96430;-42
2022/02/27 05:08:20;;;;;;;1.27;1.17;;;24.20;1.00;;;;;;4947968;28;95563;-43
2022/02/27 05:10:50;;;;;;;1.50;1.40;;;23.80;55.30;;;;;;4952186;28;95825;-42
2022/02/27 05:13:23;;;;;;;2.45;0.80;;;23.80;55.20;;;;;;4943785;28;95786;-42
2022/02/27 05:15:54;;;;;;;1.75;0.95;;;23.70;55.50;;;;;;4945361;28;95802;-41
2022/02/27 05:18:26;;;;;;;0.90;0.65;;;23.70;55.10;;;;;;4948118;28;95787;-38
2022/02/27 05:20:56;;;;;;;1.85;0.80;;;23.70;55.00;;;;;;4951593;28;95716;-38
2022/02/27 05:23:27;;;;;;;1.27;0.77;;;23.70;55.00;;;;;;4952479;28;95971;-39
2022/02/27 05:25:58;;;;;;;1.40;0.47;;;23.70;54.70;;;;;;4947006;28;95907;-38
2022/02/27 05:28:28;;;;;;;0.50;0.50;;;23.60;54.80;;;;;;4940775;28;95553;-39
2022/02/27 05:31:01;;;;;;;3.07;0.70;;;23.70;54.70;;;;;;4973888;28;95811;-39
2022/02/27 05:33:33;;;;;;;2.05;0.52;;;23.70;54.70;;;;;;4951231;28;95676;-38
2022/02/27 05:36:03;;;;;;;1.95;0.52;;;23.60;54.50;;;;;;4946518;28;95936;-38
2022/02/27 05:38:34;;;;;;;0.97;0.67;;;23.60;54.30;;;;;;4940906;28;95909;-39
2022/02/27 05:41:08;;;;;;;0.93;0.50;;;23.60;54.10;;;;;;4945060;28;96102;-39
2022/02/27 05:43:39;;;;;;;1.08;0.60;;;23.60;54.00;;;;;;4987315;22;95793;-39
2022/02/27 05:46:09;;;;;;;0.60;0.60;;;23.50;54.10;;;;;;4938668;28;96585;-41
2022/02/27 05:48:39;;;;;;;2.05;0.52;;;23.60;53.90;;;;;;4936726;28;95865;-41
2022/02/27 05:51:10;;;;;;;3.72;0.60;;;23.50;53.80;;;;;;4944266;28;95839;-40
2022/02/27 05:53:41;;;;;;;1.13;0.60;;;23.50;53.70;;;;;;4932854;28;95712;-40
2022/02/27 05:56:14;;;;;;;1.15;0.60;;;23.50;53.50;;;;;;4941403;28;95993;-40
2022/02/27 05:58:45;;;;;;;0.95;0.70;;;23.50;53.40;;;;;;4924041;28;99620;-39
2022/02/27 06:01:15;;;;;;;1.35;0.60;;;23.50;53.50;;;;;;4917183;28;96171;-39
2022/02/27 06:03:46;;;;;;;;;;;23.50;53.30;;;;;;4932471;28;95519;-40
2022/02/27 06:06:18;;;;;;;1.50;0.40;;;23.50;53.30;;;;;;4925510;28;96011;-39
2022/02/27 06:08:49;;;;;;;0.85;0.60;;;23.40;53.20;;;;;;4932198;28;95872;-40
2022/02/27 06:11:20;;;;;;;1.08;0.68;;;23.50;53.20;;;;;;4931742;28;95612;-40
2022/02/27 06:13:51;;;;;;;;;;;23.40;53.30;;;;;;4933598;28;95670;-40
2022/02/27 06:16:22;;;;;;;0.68;0.60;;;23.40;53.20;;;;;;4928450;28;95885;-39
2022/02/27 06:18:53;;;;;;;0.65;0.40;;;23.40;53.10;;;;;;4930657;28;95724;-39
2022/02/27 06:21:25;;;;;;;0.50;0.50;;;23.40;53.10;;;;;;4932535;28;95242;-39
2022/02/27 06:23:56;;;;;;;0.55;0.55;;;23.40;53.00;;;;;;4932070;28;95424;-40
2022/02/27 06:26:27;;;;;;;1.05;0.50;;;23.40;53.20;;;;;;4931522;28;96249;-39
2022/02/27 06:28:59;;;;;;;1.10;0.50;;;23.40;53.20;;;;;;4930226;28;96084;-40
2022/02/27 06:31:30;;;;;;;0.60;0.60;;;23.40;53.10;;;;;;4925984;28;95416;-40
2022/02/27 06:34:05;;;;;;;0.50;0.50;;;23.40;53.10;;;;;;4931019;28;95643;-39
2022/02/27 06:36:35;;;;;;;0.40;0.40;;;23.40;53.10;;;;;;4933394;28;96390;-39
2022/02/27 06:39:06;;;;;;;1.38;0.68;;;23.30;53.00;;;;;;4918364;28;95431;-39
2022/02/27 06:41:37;;;;;;;0.77;0.50;;;23.30;53.10;;;;;;4925928;28;96404;-39
2022/02/27 06:44:08;;;;;;;0.98;0.60;;;23.30;53.20;;;;;;4921838;28;95551;-47
2022/02/27 06:46:38;;;;;;;1.15;0.88;;;23.30;53.20;;;;;;4923958;28;96022;-48
2022/02/27 06:49:09;;;;;;;1.05;0.65;;;23.30;53.10;;;;;;4933869;28;95537;-50
2022/02/27 06:51:41;;;;;;;0.82;0.65;;;23.30;53.20;;;;;;4933220;28;95670;-49
2022/02/27 06:54:12;;;;;;;0.98;0.68;;;23.30;53.20;;;;;;4939061;28;95976;-49
2022/02/27 06:56:45;;;;;;;0.45;0.45;;;23.30;53.10;;;;;;4932379;28;96474;-47
2022/02/27 06:59:18;;;;;;;0.65;0.65;;;23.30;53.20;;;;;;4925871;28;95868;-49
2022/02/27 07:01:49;;;;;;;0.50;0.50;;;23.30;53.20;;;;;;4916176;28;95727;-49
2022/02/27 07:04:20;;;;;;;1.92;0.60;;;23.30;53.20;;;;;;4931961;28;95903;-49
2022/02/27 07:06:50;;;;;;;1.35;0.90;;;23.30;53.20;;;;;;4927804;28;95984;-49
2022/02/27 07:09:23;;;;;;;1.02;0.57;;;23.30;53.10;;;;;;4929369;28;95859;-46
2022/02/27 07:11:54;;;;;;;1.98;0.70;;;23.30;53.20;;;;;;4928595;28;95937;-47
2022/02/27 07:14:24;;;;;;;0.70;0.57;;;23.30;53.00;;;;;;4926548;28;95860;-47
2022/02/27 07:16:55;;;;;;;0.87;0.40;;;23.20;52.90;;;;;;4945825;28;99160;-47
2022/02/27 07:19:27;;;;;;;0.60;0.60;;;23.30;52.90;;;;;;4947189;28;95964;-47
2022/02/27 07:21:58;;;;;;;0.50;0.50;;;23.30;52.80;;;;;;4935016;28;95506;-47
2022/02/27 07:24:28;;;;;;;1.60;0.63;;;23.20;52.90;;;;;;4934493;28;95614;-46
2022/02/27 07:27:00;;;;;;;0.40;0.40;;;23.20;52.90;;;;;;4936229;28;95954;-47
2022/02/27 07:29:33;;;;;;;16.17;1.08;;;23.20;52.90;;;;;;4935247;28;95800;-40
2022/02/27 07:32:05;;;;;;;0.68;0.50;;;23.30;53.20;;;;;;4932157;28;95802;-48
2022/02/27 07:34:36;;;;;;;1.60;0.85;;;23.20;52.70;;;;;;4936654;28;96166;-48
2022/02/27 07:37:09;;;;;;;2.20;0.80;;;23.20;52.80;;;;;;4933329;28;96360;-41
2022/02/27 07:39:40;;;;;;;2.50;0.80;;;23.20;52.90;;;;;;4921867;28;95932;-40
2022/02/27 07:42:11;;;;;;;1.85;0.47;;;23.20;52.80;;;;;;4939519;28;95947;-40
2022/02/27 07:44:42;;;;;;;3.38;0.80;;;23.20;52.80;;;;;;4919304;28;96073;-41
2022/02/27 07:47:13;;;;;;;1.30;0.70;;;23.20;52.90;;;;;;4929924;28;96039;-42
2022/02/27 07:49:44;;;;;;;1.65;0.68;;;23.40;32.50;;;;;;4931578;28;95381;-42
2022/02/27 07:52:16;;;;;;;3.92;1.00;;;23.20;53.20;;;;;;4931470;28;95901;-41
2022/02/27 07:54:46;;;;;;;;;;;23.30;53.60;;;;;;4935382;28;95404;-41
2022/02/27 07:57:18;;;;;;;3.47;1.25;;;23.30;53.80;;;;;;4990795;22;95975;-42
2022/02/27 07:59:48;;;;;;;3.72;0.77;;;23.30;53.90;;;;;;4952784;28;95954;-41
2022/02/27 08:02:20;;;;;;;2.13;0.80;;;23.30;54.10;;;;;;4947085;28;95389;-41
2022/02/27 08:04:51;;;;;;;1.63;0.75;;;23.30;54.20;;;;;;4951141;28;97155;-41
2022/02/27 08:07:22;;;;;;;2.47;0.95;;;23.30;54.30;;;;;;4931166;28;96319;-41
2022/02/27 08:09:53;;;;;;;;;;;23.40;54.90;;;;;;4952803;28;95664;-41
2022/02/27 08:12:24;;;;;;;2.87;0.77;;;23.50;55.60;;;;;;4961207;28;95612;-41
2022/02/27 08:14:55;;;;;;;;;;;23.60;47.80;;;;;;4951624;28;95384;-41
2022/02/27 08:17:27;;;;;;;2.72;0.80;;;23.50;55.30;;;;;;4947684;28;96481;-41
2022/02/27 08:19:59;;;;;;;2.65;1.50;;;23.50;55.30;;;;;;4947881;28;95807;-41
2022/02/27 08:22:30;;;;;;;1.40;1.30;;;23.50;55.30;;;;;;4946885;28;95767;-41
2022/02/27 08:25:02;;;;;;;2.45;1.55;;;23.50;55.30;;;;;;4948788;28;95899;-40
2022/02/27 08:27:33;;;;;;;1.08;0.70;;;23.50;55.30;;;;;;4949122;28;97602;-41
2022/02/27 08:30:04;;;;;;;2.13;0.80;;;23.50;55.40;;;;;;4950186;28;95466;-41
2022/02/27 08:32:38;;;;;;;0.85;0.85;;;23.50;55.60;;;;;;4946194;28;95807;-41
2022/02/27 08:35:09;;;;;;;1.75;1.25;;;23.60;56.10;;;;;;4943741;28;97238;-41
2022/02/27 08:37:40;;;;;;;3.55;0.90;;;23.50;56.70;;;;;;4943179;28;96682;-41
2022/02/27 08:40:11;;;;;;;1.30;1.20;;;23.50;57.00;;;;;;4930690;28;95822;-41
2022/02/27 08:42:42;;;;;;;;;;;23.80;25.80;;;;;;4939818;28;95371;-41
2022/02/27 08:45:12;;;;;;;3.22;0.93;;;23.60;57.80;;;;;;4937270;28;95426;-41
2022/02/27 08:47:43;;;;;;;0.70;0.70;;;23.60;58.00;;;;;;4948720;28;103310;-41
2022/02/27 08:50:14;;;;;;;2.47;1.10;;;23.70;58.60;;;;;;4946097;28;95763;-41
2022/02/27 08:52:46;;;;;;;3.03;1.40;;;23.70;51.10;;;;;;4947119;28;98145;-41
2022/02/27 08:55:17;;;;;;;1.60;0.90;;;23.70;59.30;;;;;;4945357;28;95832;-41
2022/02/27 08:57:49;;;;;;;3.10;0.73;;;23.70;59.70;;;;;;4945990;28;97452;-41
2022/02/27 09:00:20;;;;;;;2.22;0.57;;;23.70;60.00;;;;;;4941524;28;95651;-41
2022/02/27 09:02:54;;;;;;;1.10;0.60;;;23.70;60.10;;;;;;4945029;28;95893;-41
2022/02/27 09:05:26;;;;;;;2.70;0.60;;;23.70;60.30;;;;;;4945091;28;95274;-41
2022/02/27 09:07:59;;;;;;;2.70;0.80;;;23.70;60.30;;;;;;4946830;28;95915;-41
2022/02/27 09:10:31;;;;;;;1.35;0.70;;;23.80;60.70;;;;;;4943165;28;95932;-41
2022/02/27 09:13:02;;;;;;;1.55;0.70;;;23.80;60.90;;;;;;4944650;28;95697;-41
2022/02/27 09:15:35;;;;;;;3.20;1.55;;;23.80;61.10;;;;;;4940295;28;95696;-41
2022/02/27 09:18:07;;;;;;;5.90;1.70;;;23.70;61.40;;;;;;4939664;28;96159;-41
2022/02/27 09:20:38;;;;;;;2.85;1.20;;;23.80;61.70;;;;;;4942981;28;95593;-42
2022/02/27 09:23:12;;;;;;;1.15;1.02;;;23.80;62.10;;;;;;4940535;28;97976;-41
2022/02/27 09:25:43;;;;;;;3.53;0.90;;;23.80;62.20;;;;;;4938750;28;96081;-42
2022/02/27 09:28:34;;;;;;;;;;;23.70;62.60;;;;;;4940942;28;96655;-41
2022/02/27 09:31:05;;;;;;;8.40;1.20;;;23.80;62.90;;;;;;4928326;28;96463;-42
2022/02/27 09:33:36;;;;;;;5.80;1.23;;;23.70;63.00;;;;;;4941855;28;96301;-42
2022/02/27 09:36:10;;;;;;;4.35;1.00;;;23.70;63.10;;;;;;4941346;28;95956;-41
2022/02/27 09:38:41;;;;;;;5.28;1.05;;;23.70;63.30;;;;;;4928577;28;96844;-41
2022/02/27 09:41:13;;;;;;;3.53;1.08;;;23.70;63.60;;;;;;4932721;28;97203;-41
2022/02/27 09:43:46;;;;;;;7.47;1.60;;;23.70;64.00;;;;;;4942648;28;95347;-41
2022/02/27 09:46:16;;;;;;;2.95;0.90;;;23.70;64.10;;;;;;4938478;28;95909;-42
2022/02/27 09:48:55;;;;;;;3.35;1.38;;;23.70;64.10;;;;;;4941939;28;96717;-42
2022/02/27 09:51:26;;;;;;;2.25;1.00;;;23.70;64.20;;;;;;4943956;28;96205;-42
2022/02/27 09:53:59;;;;;;;1.92;0.70;;;23.70;64.30;;;;;;4944748;28;95836;-41
2022/02/27 09:56:30;;;;;;;3.22;0.98;;;23.70;64.50;;;;;;4944686;28;98510;-43
2022/02/27 09:59:03;;;;;;;1.38;0.90;;;23.70;64.80;;;;;;4941397;28;96692;-42
2022/02/27 10:01:39;;;;;;;2.80;0.90;;;23.70;65.20;;;;;;4935816;28;98303;-41
2022/02/27 10:04:23;;;;;;;7.35;2.33;;;23.70;64.90;;;;;;4944551;28;98041;-42
2022/02/27 10:06:54;;;;;;;3.17;1.92;;;23.70;65.00;;;;;;4943101;28;96457;-42
2022/02/27 10:09:25;;;;;;;;;;;23.90;35.40;;;;;;4945573;28;98011;-42
2022/02/27 10:12:20;;;;;;;5.70;1.20;;;23.90;35.40;;;;;;4943674;28;96073;-42
2022/02/27 10:15:00;;;;;;;5.00;1.42;;;23.60;66.40;;;;;;4936336;28;95824;-42
2022/02/27 10:17:36;;;;;;;4.25;1.00;;;23.50;66.80;;;;;;4944119;28;96014;-42
2022/02/27 10:20:10;;;;;;;2.72;0.90;;;23.40;66.80;;;;;;4946703;28;95833;-42
2022/02/27 10:22:46;;;;;;;5.85;1.80;;;23.40;66.50;;;;;;4943721;28;95990;-42
2022/02/27 10:25:27;;;;;;;2.47;1.17;;;23.40;66.70;;;;;;4944423;28;95726;-42
2022/02/27 10:28:00;;;;;;;3.77;2.10;;;23.40;66.50;;;;;;4949441;28;96874;-42
2022/02/27 10:30:34;;;;;;;2.60;1.10;;;23.40;66.70;;;;;;4940848;28;95689;-42
2022/02/27 10:33:11;;;;;;;2.17;0.90;;;23.40;66.70;;;;;;4947476;28;95612;-42
2022/02/27 10:35:53;;;;;;;3.67;1.05;;;23.40;63.50;;;;;;4947538;28;95818;-42
2022/02/27 10:38:38;;;;;;;2.00;0.90;;;23.30;67.10;;;;;;4936497;28;95997;-42
2022/02/27 10:41:12;;;;;;;0.82;0.77;;;23.30;67.20;;;;;;4936194;28;95965;-43
2022/02/27 10:43:46;;;;;;;2.03;0.82;;;23.20;67.90;;;;;;4949664;28;95786;-42
2022/02/27 10:46:20;;;;;;;1.83;0.90;;;23.20;68.00;;;;;;4947537;28;95864;-42
2022/02/27 10:48:51;;;;;;;1.90;0.98;;;23.00;68.30;;;;;;4948897;28;95630;-43
2022/02/27 10:51:23;;;;;;;4.05;1.00;;;23.00;68.30;;;;;;4948001;28;95935;-42
2022/02/27 10:53:54;;;;;;;1.48;0.90;;;23.00;68.30;;;;;;4947164;28;95899;-42
2022/02/27 10:56:34;;;;;;;1.67;0.80;;;23.10;68.10;;;;;;4950010;28;95885;-42
2022/02/27 10:59:13;;;;;;;5.82;1.27;;;23.10;68.00;;;;;;4949327;28;95595;-42
2022/02/27 11:01:45;;;;;;;1.42;0.80;;;23.10;68.30;;;;;;4943065;28;96075;-41
2022/02/27 11:04:18;;;;;;;1.33;0.75;;;23.00;68.00;;;;;;4944623;28;96615;-41
2022/02/27 11:06:49;;;;;;;2.90;0.90;;;23.10;61.30;;;;;;4946812;28;95823;-41
2022/02/27 11:09:22;;;;;;;1.52;0.90;;;23.10;68.40;;;;;;4941176;28;95682;-41
2022/02/27 11:11:53;;;;;;;2.95;0.85;;;23.00;68.40;;;;;;4942026;28;95907;-42
2022/02/27 11:14:24;;;;;;;1.05;0.90;;;23.00;68.00;;;;;;4947650;28;95754;-41
2022/02/27 11:16:55;;;;;;;3.90;0.98;;;23.00;68.40;;;;;;4938608;28;96118;-42
2022/02/27 11:19:28;;;;;;;0.90;0.60;;;23.00;68.30;;;;;;4939740;28;95348;-41
2022/02/27 11:22:00;;;;;;;5.20;1.33;;;23.00;68.30;;;;;;4943050;28;95886;-41
2022/02/27 11:24:36;;;;;;;1.65;1.00;;;23.00;68.40;;;;;;4939599;28;95756;-41
2022/02/27 11:27:08;;;;;;;2.40;1.13;;;22.90;68.40;;;;;;4937069;28;96289;-41
2022/02/27 11:29:41;;;;;;;4.10;1.45;;;22.90;68.40;;;;;;4943053;28;97185;-41
2022/02/27 11:32:12;;;;;;;3.67;0.93;;;22.90;68.50;;;;;;4933367;28;97248;-41
2022/02/27 11:34:43;;;;;;;2.13;0.77;;;23.10;39.20;;;;;;4944630;28;95390;-41
2022/02/27 11:37:16;;;;;;;3.38;1.10;;;22.90;68.70;;;;;;4939489;28;95648;-41
2022/02/27 11:40:28;;;;;;;2.20;0.98;;;22.90;67.90;;;;;;4923079;28;95881;-41
2022/02/27 11:43:02;;;;;;;3.28;1.00;;;22.90;68.90;;;;;;4942214;28;95916;-41
2022/02/27 11:45:38;;;;;;;2.85;1.23;;;23.10;39.00;;;;;;4933398;28;97542;-43
2022/02/27 11:48:10;;;;;;;3.80;1.05;;;22.90;68.90;;;;;;4940606;28;95770;-41
2022/02/27 11:50:53;;;;;;;2.45;0.80;;;22.80;68.90;;;;;;4941772;28;95906;-41
2022/02/27 11:53:27;;;;;;;3.25;0.85;;;22.80;64.90;;;;;;4939598;28;96528;-41
2022/02/27 11:56:06;;;;;;;3.42;1.13;;;22.80;69.40;;;;;;4940829;28;97098;-41
2022/02/27 11:58:38;;;;;;;2.22;1.30;;;23.00;39.70;;;;;;4949918;28;95846;-41
2022/02/27 12:01:11;;;;;;;1.90;1.10;;;22.90;63.10;;;;;;4947046;28;97564;-41
2022/02/27 12:03:49;;;;;;;1.70;0.88;;;22.90;62.50;;;;;;4948603;28;97927;-40
2022/02/27 12:06:59;;;;;;;2.72;0.88;;;22.80;69.60;;;;;;4949245;28;95729;-42
2022/02/27 12:09:51;;;;;;;2.25;0.80;;;22.80;69.70;;;;;;4946848;28;96000;-42
2022/02/27 12:12:44;;;;;;;1.83;0.70;;;22.80;69.70;;;;;;4947103;28;96154;-42
2022/02/27 12:15:20;;;;;;;1.88;0.77;;;22.80;69.70;;;;;;4944536;28;96561;-41
2022/02/27 12:18:03;;;;;;;1.50;0.60;;;22.70;56.40;;;;;;4920559;28;97214;-42
2022/02/27 12:20:43;;;;;;;4.72;1.10;;;22.70;70.20;;;;;;4945754;28;95859;-42
2022/02/27 12:23:34;;;;;;;3.25;1.08;;;22.90;39.90;;;;;;4942203;28;95970;-42
2022/02/27 12:26:10;;;;;;;2.33;0.98;;;22.70;70.40;;;;;;4940303;28;98612;-41
2022/02/27 12:28:50;;;;;;;2.00;0.88;;;22.70;70.70;;;;;;4940715;28;96162;-41
2022/02/27 12:31:27;;;;;;;2.17;0.80;;;22.90;40.10;;;;;;4940927;28;95909;-39
2022/02/27 12:33:59;;;;;;;1.15;0.73;;;22.80;70.00;;;;;;4948867;28;95686;-42
2022/02/27 12:36:41;;;;;;;2.40;0.80;;;22.90;70.40;;;;;;4944673;28;97018;-44
2022/02/27 12:39:15;;;;;;;1.80;0.85;;;22.90;70.40;;;;;;4928764;28;95451;-42
2022/02/27 12:41:52;;;;;;;0.57;0.57;;;23.10;70.10;;;;;;4942409;28;95992;-41
2022/02/27 12:44:33;;;;;;;4.68;1.10;;;23.10;70.20;;;;;;4948833;28;95857;-43
2022/02/27 12:47:10;;;;;;;2.17;0.77;;;23.30;69.60;;;;;;4945933;28;95965;-45
2022/02/27 12:52:38;;;;;;;1.00;0.68;;;23.50;69.00;;;;;;4949886;28;95821;-44
2022/02/27 12:55:21;;;;;;;1.17;1.13;;;23.50;69.00;;;;;;4947336;28;95979;-46
2022/02/27 12:57:55;;;;;;;2.08;1.10;;;23.80;37.50;;;;;;4947026;28;96141;-43
2022/02/27 13:00:26;;;;;;;3.30;1.08;;;23.60;68.50;;;;;;4940401;28;97269;-44
2022/02/27 13:02:57;;;;;;;1.95;0.80;;;23.70;68.70;;;;;;4948967;28;95604;-45
2022/02/27 13:05:32;;;;;;;2.45;1.00;;;23.80;68.10;;;;;;4948735;28;95247;-43
2022/02/27 13:08:07;;;;;;;0.60;0.60;;;23.70;68.50;;;;;;4947471;28;96085;-46
2022/02/27 13:10:41;;;;;;;0.60;0.60;;;23.90;61.40;;;;;;4946123;28;95971;-43
2022/02/27 13:13:17;;;;;;;2.05;0.80;;;23.90;61.30;;;;;;4948810;28;95837;-45
2022/02/27 13:15:56;;;;;;;1.17;0.57;;;23.90;67.90;;;;;;4944015;28;96932;-45
2022/02/27 13:18:30;;;;;;;2.28;0.93;;;23.70;68.10;;;;;;4948519;28;96055;-43
2022/02/27 13:21:02;;;;;;;1.65;0.90;;;23.50;69.10;;;;;;4944711;28;95883;-41
2022/02/27 13:23:33;;;;;;;3.58;1.10;;;23.50;69.20;;;;;;4941989;28;95799;-39